Time;durP1;ratioP1;P1;durP2;ratioP2;P2;SDS_P1;SDS_P2;PMS_P1;PMS_P2;Temp;Humidity;BMP_temperature;BMP_pressure;BME280_temperature;BME280_humidity;BME280_pressure;Samples;Min_cycle;Max_cycle;Signal;HPM_P1;HPM_P2
2024/03/05 00:00:21;;;;;;;5.22;4.78;;;;;;;;;;1252561;23;20010;-74
2024/03/05 00:00:52;;;;;;;12.13;8.43;;;;;;;;;;1277775;23;20005;-74
2024/03/05 00:01:22;;;;;;;9.00;4.35;;;;;;;;;;1277702;23;20005;-73
2024/03/05 00:01:52;;;;;;;15.95;5.93;;;;;;;;;;1278103;23;20091;-73
2024/03/05 00:02:23;;;;;;;9.38;6.28;;;;;;;;;;1277602;23;20001;-74
2024/03/05 00:02:54;;;;;;;19.73;4.80;;;;;;;;;;1252664;23;20014;-74
2024/03/05 00:03:24;;;;;;;2.55;2.35;;;;;;;;;;1252904;23;20060;-74
2024/03/05 00:03:55;;;;;;;3.20;2.90;;;;;;;;;;1253068;23;20045;-73
2024/03/05 00:04:26;;;;;;;3.92;3.35;;;;;;;;;;1246450;23;20066;-73
2024/03/05 00:04:57;;;;;;;5.25;4.13;;;;;;;;;;1246524;23;20014;-73
2024/03/05 00:05:29;;;;;;;17.88;6.55;;;;;;;;;;1246936;23;20034;-74
2024/03/05 00:06:00;;;;;;;6.53;4.72;;;;;;;;;;1247490;23;20444;-74
2024/03/05 00:06:30;;;;;;;8.45;7.65;;;;;;;;;;1252914;23;20007;-73
2024/03/05 00:07:00;;;;;;;6.93;6.28;;;;;;;;;;1252642;23;20375;-73
2024/03/05 00:07:31;;;;;;;7.82;1.88;;;;;;;;;;1253250;23;20342;-73
2024/03/05 00:08:02;;;;;;;2.53;2.40;;;;;;;;;;1253001;23;20014;-73
2024/03/05 00:08:33;;;;;;;4.18;3.72;;;;;;;;;;1252891;23;20010;-73
2024/03/05 00:09:03;;;;;;;3.63;2.63;;;;;;;;;;1252779;23;20046;-73
2024/03/05 00:09:34;;;;;;;3.28;3.08;;;;;;;;;;1253053;23;20445;-73
2024/03/05 00:10:04;;;;;;;6.82;4.55;;;;;;;;;;1252985;23;20334;-73
2024/03/05 00:10:35;;;;;;;3.75;3.42;;;;;;;;;;1253043;23;20442;-73
2024/03/05 00:11:05;;;;;;;2.30;2.13;;;;;;;;;;1252878;23;20307;-73
2024/03/05 00:11:36;;;;;;;13.93;5.15;;;;;;;;;;1252954;23;20105;-73
2024/03/05 00:12:06;;;;;;;7.13;3.40;;;;;;;;;;1252585;23;20089;-73
2024/03/05 00:12:37;;;;;;;3.28;2.92;;;;;;;;;;1252596;23;20078;-73
2024/03/05 00:13:07;;;;;;;2.72;2.53;;;;;;;;;;1252433;23;20032;-73
2024/03/05 00:13:38;;;;;;;16.52;3.75;;;;;;;;;;1252493;23;20015;-74
2024/03/05 00:14:08;;;;;;;4.93;4.10;;;;;;;;;;1246608;23;20008;-73
2024/03/05 00:14:39;;;;;;;11.20;4.20;;;;;;;;;;1246720;23;20445;-73
2024/03/05 00:15:09;;;;;;;4.18;3.28;;;;;;;;;;1246844;23;20125;-74
2024/03/05 00:15:40;;;;;;;4.50;3.60;;;;;;;;;;1253068;23;20006;-74
2024/03/05 00:16:10;;;;;;;3.35;3.13;;;;;;;;;;1253032;23;20361;-74
2024/03/05 00:16:41;;;;;;;10.57;3.90;;;;;;;;;;1253030;23;20101;-74
2024/03/05 00:17:12;;;;;;;6.50;5.57;;;;;;;;;;1252906;23;20007;-74
2024/03/05 00:17:43;;;;;;;8.75;4.95;;;;;;;;;;1246690;23;20343;-74
2024/03/05 00:18:13;;;;;;;3.00;2.63;;;;;;;;;;1246584;23;20394;-73
2024/03/05 00:18:45;;;;;;;9.77;4.60;;;;;;;;;;1240820;23;20090;-73
2024/03/05 00:19:16;;;;;;;6.95;4.72;;;;;;;;;;1240723;23;20090;-73
2024/03/05 00:19:46;;;;;;;4.30;2.95;;;;;;;;;;1241498;23;20390;-74
2024/03/05 00:20:19;;;;;;;4.35;3.50;;;;;;;;;;1247129;23;20350;-74
2024/03/05 00:20:50;;;;;;;3.88;3.08;;;;;;;;;;1252994;23;20085;-74
2024/03/05 00:21:21;;;;;;;7.45;4.35;;;;;;;;;;1252775;23;20094;-74
2024/03/05 00:21:52;;;;;;;2.05;1.95;;;;;;;;;;1252360;23;20017;-74
2024/03/05 00:22:24;;;;;;;8.65;3.25;;;;;;;;;;1252838;23;20010;-73
2024/03/05 00:22:54;;;;;;;11.25;4.18;;;;;;;;;;1252913;23;20355;-73
2024/03/05 00:23:25;;;;;;;10.27;5.50;;;;;;;;;;1252842;23;20003;-74
2024/03/05 00:23:55;;;;;;;5.32;4.38;;;;;;;;;;1253092;23;20090;-74
2024/03/05 00:24:26;;;;;;;3.55;3.25;;;;;;;;;;1252898;23;20105;-73
2024/03/05 00:24:58;;;;;;;4.72;4.25;;;;;;;;;;1246604;23;20490;-74
2024/03/05 00:25:29;;;;;;;2.90;1.65;;;;;;;;;;1246898;23;20034;-74
2024/03/05 00:25:59;;;;;;;6.80;3.67;;;;;;;;;;1246654;23;20455;-74
2024/03/05 00:26:29;;;;;;;5.55;3.67;;;;;;;;;;1246757;23;20012;-74
2024/03/05 00:27:00;;;;;;;2.03;1.92;;;;;;;;;;1246549;23;20007;-74
2024/03/05 00:27:30;;;;;;;5.38;4.03;;;;;;;;;;1246806;23;20011;-74
2024/03/05 00:28:01;;;;;;;4.20;3.90;;;;;;;;;;1252658;23;20386;-74
2024/03/05 00:28:32;;;;;;;2.90;2.70;;;;;;;;;;1252556;23;20014;-73
2024/03/05 00:29:03;;;;;;;0.93;0.90;;;;;;;;;;1252672;23;20014;-74
2024/03/05 00:29:33;;;;;;;4.07;3.67;;;;;;;;;;1253099;23;20002;-74
2024/03/05 00:30:04;;;;;;;3.08;2.88;;;;;;;;;;1246637;23;20172;-74
2024/03/05 00:30:35;;;;;;;2.47;2.35;;;;;;;;;;1246725;23;20375;-74
2024/03/05 00:31:05;;;;;;;6.80;3.42;;;;;;;;;;1246697;23;20042;-73
2024/03/05 00:31:39;;;;;;;3.35;3.00;;;;;;;;;;1246971;23;20526;-73
2024/03/05 00:32:10;;;;;;;4.18;3.03;;;;;;;;;;1252461;23;20034;-74
2024/03/05 00:32:40;;;;;;;4.00;3.78;;;;;;;;;;1252582;23;20373;-74
2024/03/05 00:33:11;;;;;;;17.52;4.40;;;;;;;;;;1252596;23;20007;-74
2024/03/05 00:33:41;;;;;;;3.53;3.22;;;;;;;;;;1253022;23;20007;-74
2024/03/05 00:34:12;;;;;;;5.63;4.80;;;;;;;;;;1252946;23;20015;-74
2024/03/05 00:34:42;;;;;;;7.18;3.63;;;;;;;;;;1253044;23;20089;-74
2024/03/05 00:35:14;;;;;;;2.15;2.05;;;;;;;;;;1246600;23;20038;-74
2024/03/05 00:35:44;;;;;;;7.28;4.00;;;;;;;;;;1246875;23;20316;-73
2024/03/05 00:36:15;;;;;;;3.35;3.03;;;;;;;;;;1246701;23;20010;-73
2024/03/05 00:36:45;;;;;;;5.35;2.65;;;;;;;;;;1246703;23;20427;-73
2024/03/05 00:37:16;;;;;;;3.05;2.85;;;;;;;;;;1252889;23;20102;-73
2024/03/05 00:37:46;;;;;;;7.25;4.95;;;;;;;;;;1246752;23;20440;-73
2024/03/05 00:38:17;;;;;;;5.07;3.75;;;;;;;;;;1246596;23;20122;-73
2024/03/05 00:38:48;;;;;;;8.35;4.88;;;;;;;;;;1246728;23;20086;-73
2024/03/05 00:39:19;;;;;;;4.57;3.72;;;;;;;;;;1246629;23;20007;-73
2024/03/05 00:39:49;;;;;;;3.35;3.15;;;;;;;;;;1246877;23;20011;-74
2024/03/05 00:40:19;;;;;;;3.45;3.05;;;;;;;;;;1252391;23;20011;-73
2024/03/05 00:40:51;;;;;;;3.40;3.10;;;;;;;;;;1252630;23;20011;-73
2024/03/05 00:41:22;;;;;;;7.40;4.65;;;;;;;;;;1252446;23;20014;-74
2024/03/05 00:41:52;;;;;;;4.75;4.32;;;;;;;;;;1252262;23;20010;-74
2024/03/05 00:42:23;;;;;;;10.63;2.97;;;;;;;;;;1246589;23;20011;-73
2024/03/05 00:42:53;;;;;;;3.03;2.17;;;;;;;;;;1246644;23;20007;-73
2024/03/05 00:43:24;;;;;;;1.27;1.27;;;;;;;;;;1246631;23;20147;-73
2024/03/05 00:43:54;;;;;;;3.40;2.75;;;;;;;;;;1246848;23;20011;-73
2024/03/05 00:44:26;;;;;;;3.40;3.20;;;;;;;;;;1246658;23;20003;-73
2024/03/05 00:44:56;;;;;;;8.70;4.00;;;;;;;;;;1246886;23;20011;-73
2024/03/05 00:45:27;;;;;;;2.67;2.45;;;;;;;;;;1253015;23;20010;-74
2024/03/05 00:45:57;;;;;;;10.15;5.13;;;;;;;;;;1252108;23;20094;-74
2024/03/05 00:46:28;;;;;;;4.65;4.28;;;;;;;;;;1252517;23;20011;-73
2024/03/05 00:46:58;;;;;;;4.00;3.63;;;;;;;;;;1252475;23;20513;-73
2024/03/05 00:47:29;;;;;;;3.13;2.80;;;;;;;;;;1246648;23;20443;-73
2024/03/05 00:48:00;;;;;;;5.18;2.35;;;;;;;;;;1246462;23;20054;-73
2024/03/05 00:48:31;;;;;;;2.00;1.90;;;;;;;;;;1246234;23;20074;-74
2024/03/05 00:49:02;;;;;;;8.43;4.22;;;;;;;;;;1246752;23;20011;-74
2024/03/05 00:49:33;;;;;;;5.05;4.53;;;;;;;;;;1252763;23;20010;-73
2024/03/05 00:50:07;;;;;;;4.80;4.35;;;;;;;;;;1252680;23;20011;-73
2024/03/05 00:50:37;;;;;;;7.85;7.05;;;;;;;;;;1252506;23;20019;-73
2024/03/05 00:51:08;;;;;;;7.38;3.88;;;;;;;;;;1246504;23;20514;-73
2024/03/05 00:51:39;;;;;;;4.07;3.78;;;;;;;;;;1246261;23;20481;-73
2024/03/05 00:52:09;;;;;;;5.88;4.20;;;;;;;;;;1246604;23;20038;-73
2024/03/05 00:52:39;;;;;;;3.70;3.40;;;;;;;;;;1246252;23;20098;-73
2024/03/05 00:53:10;;;;;;;3.83;3.08;;;;;;;;;;1246744;23;20031;-73
2024/03/05 00:53:40;;;;;;;3.80;1.15;;;;;;;;;;1246331;23;20007;-73
2024/03/05 00:54:12;;;;;;;4.95;3.50;;;;;;;;;;1246003;23;20019;-74
2024/03/05 00:54:42;;;;;;;5.40;2.50;;;;;;;;;;1252157;23;20018;-74
2024/03/05 00:55:13;;;;;;;1.90;1.35;;;;;;;;;;1252412;23;20015;-73
2024/03/05 00:55:44;;;;;;;3.70;3.17;;;;;;;;;;1246658;23;20150;-73
2024/03/05 00:56:14;;;;;;;4.18;2.70;;;;;;;;;;1246623;23;20114;-73
2024/03/05 00:56:45;;;;;;;5.03;3.45;;;;;;;;;;1246776;23;20026;-73
2024/03/05 00:57:15;;;;;;;6.13;5.68;;;;;;;;;;1246843;23;20519;-73
2024/03/05 00:57:46;;;;;;;1.88;1.77;;;;;;;;;;1253085;23;20430;-73
2024/03/05 00:58:16;;;;;;;2.08;1.98;;;;;;;;;;1252921;23;20437;-73
2024/03/05 00:58:47;;;;;;;7.45;5.05;;;;;;;;;;1252883;23;20034;-74
2024/03/05 00:59:17;;;;;;;5.15;4.68;;;;;;;;;;1252875;23;20464;-74
2024/03/05 00:59:48;;;;;;;2.20;2.00;;;;;;;;;;1253079;23;20014;-74
2024/03/05 01:00:19;;;;;;;3.83;2.55;;;;;;;;;;1277046;23;20009;-74
2024/03/05 01:00:50;;;;;;;2.65;2.50;;;;;;;;;;1277009;23;20403;-74
2024/03/05 01:01:20;;;;;;;1.58;1.48;;;;;;;;;;1275444;23;20075;-74
2024/03/05 01:01:51;;;;;;;10.88;4.72;;;;;;;;;;1276022;23;20461;-74
2024/03/05 01:02:22;;;;;;;4.97;4.43;;;;;;;;;;1252742;23;20066;-73
2024/03/05 01:02:52;;;;;;;2.42;2.28;;;;;;;;;;1252764;23;20086;-73
2024/03/05 01:03:22;;;;;;;4.82;2.38;;;;;;;;;;1252755;23;20017;-73
2024/03/05 01:03:55;;;;;;;12.85;4.03;;;;;;;;;;1253067;23;20009;-74
2024/03/05 01:04:25;;;;;;;11.68;3.58;;;;;;;;;;1246341;23;20043;-74
2024/03/05 01:04:56;;;;;;;4.00;2.03;;;;;;;;;;1246476;23;20518;-74
2024/03/05 01:05:26;;;;;;;4.68;3.38;;;;;;;;;;1246706;23;20366;-74
2024/03/05 01:05:57;;;;;;;2.47;2.28;;;;;;;;;;1246613;23;20030;-74
2024/03/05 01:06:27;;;;;;;11.85;3.13;;;;;;;;;;1252930;23;20033;-74
2024/03/05 01:06:58;;;;;;;9.80;6.28;;;;;;;;;;1251905;23;20061;-74
2024/03/05 01:07:28;;;;;;;5.60;3.30;;;;;;;;;;1251636;23;20082;-74
2024/03/05 01:07:59;;;;;;;4.13;3.72;;;;;;;;;;1245917;23;20078;-74
2024/03/05 01:08:30;;;;;;;1.58;1.48;;;;;;;;;;1246466;23;20373;-74
2024/03/05 01:09:01;;;;;;;5.35;4.85;;;;;;;;;;1245885;23;20007;-74
2024/03/05 01:09:31;;;;;;;4.97;3.05;;;;;;;;;;1240292;23;20079;-73
2024/03/05 01:10:04;;;;;;;9.95;4.18;;;;;;;;;;1246053;23;20046;-73
2024/03/05 01:10:35;;;;;;;12.15;4.75;;;;;;;;;;1246306;23;20450;-74
2024/03/05 01:11:07;;;;;;;8.38;3.58;;;;;;;;;;1246081;23;20259;-74
2024/03/05 01:11:37;;;;;;;6.82;2.78;;;;;;;;;;1241168;23;20015;-74
2024/03/05 01:12:08;;;;;;;1.75;1.45;;;;;;;;;;1246448;23;20004;-74
2024/03/05 01:12:40;;;;;;;5.30;4.00;;;;;;;;;;1246101;23;20014;-74
2024/03/05 01:13:10;;;;;;;4.15;3.85;;;;;;;;;;1246873;23;20062;-74
2024/03/05 01:13:41;;;;;;;5.30;4.88;;;;;;;;;;1252234;23;20418;-73
2024/03/05 01:14:12;;;;;;;8.82;5.05;;;;;;;;;;1251938;23;20344;-74
2024/03/05 01:14:42;;;;;;;12.20;4.47;;;;;;;;;;1251845;23;20133;-74
2024/03/05 01:15:13;;;;;;;3.20;2.90;;;;;;;;;;1252470;23;20102;-74
2024/03/05 01:15:43;;;;;;;2.30;2.15;;;;;;;;;;1253137;23;20007;-74
2024/03/05 01:16:14;;;;;;;6.70;2.90;;;;;;;;;;1252611;23;20478;-75
2024/03/05 01:16:44;;;;;;;26.35;5.78;;;;;;;;;;1246592;23;20388;-73
2024/03/05 01:17:14;;;;;;;6.53;4.70;;;;;;;;;;1245100;23;20090;-74
2024/03/05 01:17:45;;;;;;;6.50;5.13;;;;;;;;;;1246693;23;20007;-73
2024/03/05 01:18:15;;;;;;;2.63;2.17;;;;;;;;;;1245973;23;20015;-74
2024/03/05 01:18:46;;;;;;;9.65;3.95;;;;;;;;;;1245794;23;20106;-74
2024/03/05 01:19:16;;;;;;;2.53;1.42;;;;;;;;;;1245771;23;20034;-74
2024/03/05 01:19:47;;;;;;;7.32;4.28;;;;;;;;;;1246523;23;20332;-74
2024/03/05 01:20:18;;;;;;;3.70;2.97;;;;;;;;;;1244491;23;20069;-73
2024/03/05 01:20:49;;;;;;;3.17;2.97;;;;;;;;;;1245496;23;20015;-74
2024/03/05 01:21:20;;;;;;;3.03;2.55;;;;;;;;;;1251087;23;20011;-74
2024/03/05 01:21:50;;;;;;;4.35;3.85;;;;;;;;;;1245045;23;20018;-74
2024/03/05 01:22:21;;;;;;;4.82;3.38;;;;;;;;;;1239899;23;20388;-74
2024/03/05 01:22:52;;;;;;;15.50;5.05;;;;;;;;;;1239193;23;20086;-73
2024/03/05 01:23:24;;;;;;;7.75;3.67;;;;;;;;;;1240330;23;20537;-74
2024/03/05 01:23:54;;;;;;;6.65;2.92;;;;;;;;;;1245490;23;20014;-74
2024/03/05 01:24:25;;;;;;;3.42;2.28;;;;;;;;;;1250892;23;20097;-74
2024/03/05 01:24:56;;;;;;;4.88;4.45;;;;;;;;;;1251069;23;20010;-74
2024/03/05 01:25:26;;;;;;;2.60;2.40;;;;;;;;;;1250944;23;20010;-73
2024/03/05 01:25:59;;;;;;;4.35;3.95;;;;;;;;;;1244625;23;20091;-74
2024/03/05 01:26:29;;;;;;;3.08;2.88;;;;;;;;;;1246088;23;20008;-73
2024/03/05 01:27:00;;;;;;;9.57;5.72;;;;;;;;;;1250870;23;20007;-74
2024/03/05 01:27:30;;;;;;;7.53;5.45;;;;;;;;;;1252108;23;20013;-74
2024/03/05 01:28:01;;;;;;;6.85;3.92;;;;;;;;;;1252371;23;20011;-74
2024/03/05 01:28:31;;;;;;;8.70;6.00;;;;;;;;;;1251824;23;20368;-74
2024/03/05 01:29:02;;;;;;;3.47;3.10;;;;;;;;;;1252070;23;20340;-74
2024/03/05 01:29:32;;;;;;;2.33;2.03;;;;;;;;;;1252468;23;20010;-74
2024/03/05 01:30:03;;;;;;;8.73;2.88;;;;;;;;;;1252198;23;20023;-74
2024/03/05 01:30:34;;;;;;;2.28;1.95;;;;;;;;;;1251804;23;20423;-73
2024/03/05 01:31:04;;;;;;;3.67;2.33;;;;;;;;;;1245463;23;20539;-73
2024/03/05 01:31:36;;;;;;;5.20;3.15;;;;;;;;;;1245588;23;20155;-73
2024/03/05 01:32:07;;;;;;;14.43;2.30;;;;;;;;;;1245127;23;20424;-73
2024/03/05 01:32:38;;;;;;;8.77;5.80;;;;;;;;;;1246152;23;20494;-73
2024/03/05 01:33:19;;;;;;;1.80;1.73;;;;;;;;;;1246571;23;20061;-74
2024/03/05 01:33:50;;;;;;;1.65;1.55;;;;;;;;;;1250775;23;20035;-74
2024/03/05 01:34:21;;;;;;;4.40;3.15;;;;;;;;;;1251447;23;20334;-74
2024/03/05 01:34:54;;;;;;;3.35;3.05;;;;;;;;;;1250918;23;20010;-75
2024/03/05 01:35:25;;;;;;;3.85;2.28;;;;;;;;;;1250660;23;20090;-74
2024/03/05 01:35:56;;;;;;;10.82;2.78;;;;;;;;;;1250382;23;20015;-74
2024/03/05 01:36:27;;;;;;;7.00;4.72;;;;;;;;;;1250388;23;20089;-75
2024/03/05 01:37:04;;;;;;;5.85;3.65;;;;;;;;;;1249435;23;20011;-74
2024/03/05 01:37:35;;;;;;;9.90;6.07;;;;;;;;;;1250703;23;20394;-76
2024/03/05 01:38:07;;;;;;;6.47;3.67;;;;;;;;;;1250240;23;20157;-76
2024/03/05 01:38:37;;;;;;;7.45;4.95;;;;;;;;;;1250756;23;20038;-73
2024/03/05 01:39:09;;;;;;;4.20;3.85;;;;;;;;;;1250502;23;20013;-75
2024/03/05 01:39:40;;;;;;;20.10;6.50;;;;;;;;;;1251138;23;20082;-76
2024/03/05 01:40:10;;;;;;;10.77;4.10;;;;;;;;;;1250569;23;20010;-75
2024/03/05 01:40:41;;;;;;;9.48;4.38;;;;;;;;;;1252075;23;20427;-75
2024/03/05 01:41:11;;;;;;;7.32;4.18;;;;;;;;;;1251140;23;20014;-76
2024/03/05 01:41:43;;;;;;;5.47;4.93;;;;;;;;;;1246413;23;20066;-74
2024/03/05 01:42:13;;;;;;;10.48;3.83;;;;;;;;;;1239738;23;20012;-74
2024/03/05 01:42:43;;;;;;;7.07;5.30;;;;;;;;;;1239492;23;20008;-74
2024/03/05 01:43:14;;;;;;;7.93;5.47;;;;;;;;;;1234095;23;20047;-74
2024/03/05 01:43:45;;;;;;;6.15;4.85;;;;;;;;;;1240564;23;20030;-74
2024/03/05 01:44:15;;;;;;;5.60;3.17;;;;;;;;;;1244527;23;20153;-74
2024/03/05 01:44:47;;;;;;;6.55;3.40;;;;;;;;;;1245311;23;20578;-74
2024/03/05 01:45:18;;;;;;;3.97;3.53;;;;;;;;;;1251633;23;20011;-74
2024/03/05 01:45:50;;;;;;;11.98;4.97;;;;;;;;;;1251755;23;20019;-74
2024/03/05 01:46:20;;;;;;;9.27;4.40;;;;;;;;;;1250572;23;20115;-74
2024/03/05 01:46:52;;;;;;;6.82;4.38;;;;;;;;;;1245067;23;20018;-74
2024/03/05 01:47:22;;;;;;;6.22;5.18;;;;;;;;;;1245338;23;20011;-74
2024/03/05 01:47:53;;;;;;;9.60;3.90;;;;;;;;;;1245199;23;20459;-74
2024/03/05 01:48:23;;;;;;;8.00;6.00;;;;;;;;;;1245919;23;20007;-74
2024/03/05 01:48:54;;;;;;;8.38;5.68;;;;;;;;;;1251296;23;20041;-75
2024/03/05 01:49:25;;;;;;;6.38;3.78;;;;;;;;;;1246064;23;20348;-75
2024/03/05 01:49:55;;;;;;;6.85;4.63;;;;;;;;;;1238965;23;20089;-75
2024/03/05 01:50:27;;;;;;;13.25;4.82;;;;;;;;;;1240033;23;20120;-75
2024/03/05 01:50:57;;;;;;;4.32;3.88;;;;;;;;;;1240127;23;20090;-75
2024/03/05 01:51:28;;;;;;;10.20;5.43;;;;;;;;;;1246489;23;20011;-75
2024/03/05 01:51:58;;;;;;;10.13;3.97;;;;;;;;;;1251466;23;20002;-75
2024/03/05 01:52:30;;;;;;;4.85;3.70;;;;;;;;;;1246020;23;20091;-74
2024/03/05 01:53:02;;;;;;;8.60;3.08;;;;;;;;;;1239999;23;20464;-75
2024/03/05 01:53:33;;;;;;;13.95;6.07;;;;;;;;;;1241334;23;20042;-75
2024/03/05 01:54:05;;;;;;;7.35;4.55;;;;;;;;;;1246566;23;20073;-75
2024/03/05 01:54:36;;;;;;;8.80;5.50;;;;;;;;;;1245585;23;20007;-75
2024/03/05 01:55:10;;;;;;;9.13;5.20;;;;;;;;;;1245626;23;20011;-75
2024/03/05 01:55:40;;;;;;;9.57;5.25;;;;;;;;;;1245690;23;20367;-75
2024/03/05 01:56:11;;;;;;;6.25;4.10;;;;;;;;;;1240625;23;20012;-75
2024/03/05 01:56:44;;;;;;;12.30;8.65;;;;;;;;;;1245440;23;20071;-74
2024/03/05 01:57:15;;;;;;;8.80;5.43;;;;;;;;;;1245789;23;20011;-74
2024/03/05 01:57:48;;;;;;;16.08;7.40;;;;;;;;;;1247418;23;20256;-75
2024/03/05 01:58:19;;;;;;;5.90;3.05;;;;;;;;;;1251973;23;20017;-74
2024/03/05 01:58:50;;;;;;;8.07;6.93;;;;;;;;;;1251841;23;20014;-74
2024/03/05 01:59:21;;;;;;;13.55;9.27;;;;;;;;;;1250292;23;20080;-74
2024/03/05 01:59:51;;;;;;;19.10;6.85;;;;;;;;;;1245493;23;20011;-74
2024/03/05 02:00:23;;;;;;;15.35;9.60;;;;;;;;;;1245619;23;20011;-75
2024/03/05 02:00:53;;;;;;;14.93;8.48;;;;;;;;;;1245676;23;20101;-75
2024/03/05 02:01:24;;;;;;;14.80;7.15;;;;;;;;;;1246338;23;20011;-75
2024/03/05 02:01:57;;;;;;;9.00;6.97;;;;;;;;;;1245910;23;20507;-75
2024/03/05 02:02:27;;;;;;;7.35;4.90;;;;;;;;;;1246156;23;20065;-75
2024/03/05 02:03:01;;;;;;;12.15;9.68;;;;;;;;;;1240305;23;20070;-75
2024/03/05 02:03:32;;;;;;;7.53;6.75;;;;;;;;;;1246263;23;20019;-75
2024/03/05 02:04:02;;;;;;;19.75;9.02;;;;;;;;;;1245437;23;20467;-75
2024/03/05 02:04:35;;;;;;;7.32;6.57;;;;;;;;;;1246248;23;20012;-75
2024/03/05 02:05:08;;;;;;;14.02;7.70;;;;;;;;;;1251976;23;20014;-75
2024/03/05 02:05:43;;;;;;;13.38;9.48;;;;;;;;;;1251765;23;20010;-75
2024/03/05 02:06:14;;;;;;;12.23;6.93;;;;;;;;;;1245772;23;20007;-75
2024/03/05 02:06:46;;;;;;;19.92;6.78;;;;;;;;;;1245383;23;20019;-75
2024/03/05 02:07:17;;;;;;;9.65;7.25;;;;;;;;;;1244520;23;20101;-75
2024/03/05 02:07:48;;;;;;;10.23;6.40;;;;;;;;;;1247059;23;20470;-75
2024/03/05 02:08:21;;;;;;;15.00;4.88;;;;;;;;;;1245413;23;20034;-75
2024/03/05 02:08:51;;;;;;;27.85;7.75;;;;;;;;;;1245375;23;20011;-75
2024/03/05 02:09:22;;;;;;;13.02;9.48;;;;;;;;;;1246105;23;19999;-77
2024/03/05 02:09:54;;;;;;;10.25;6.45;;;;;;;;;;1246755;23;20152;-75
2024/03/05 02:10:24;;;;;;;7.00;6.03;;;;;;;;;;1245253;23;20022;-75
2024/03/05 02:10:55;;;;;;;12.48;7.32;;;;;;;;;;1245882;23;20530;-75
2024/03/05 02:11:25;;;;;;;8.55;5.57;;;;;;;;;;1246637;23;20331;-75
2024/03/05 02:11:56;;;;;;;5.05;4.40;;;;;;;;;;1246786;23;20020;-75
2024/03/05 02:12:26;;;;;;;14.27;5.28;;;;;;;;;;1251853;23;20007;-75
2024/03/05 02:12:57;;;;;;;14.38;5.60;;;;;;;;;;1251966;23;20007;-75
2024/03/05 02:13:27;;;;;;;12.45;5.15;;;;;;;;;;1252270;23;20015;-75
2024/03/05 02:13:58;;;;;;;5.85;5.30;;;;;;;;;;1251753;23;20090;-75
2024/03/05 02:14:30;;;;;;;4.18;2.63;;;;;;;;;;1251521;23;20029;-75
2024/03/05 02:15:01;;;;;;;10.80;7.68;;;;;;;;;;1251526;23;20414;-75
2024/03/05 02:15:31;;;;;;;6.22;5.03;;;;;;;;;;1251459;23;20007;-75
2024/03/05 02:16:02;;;;;;;11.38;4.43;;;;;;;;;;1251602;23;19999;-75
2024/03/05 02:16:33;;;;;;;13.65;6.70;;;;;;;;;;1252109;23;20427;-75
2024/03/05 02:17:04;;;;;;;10.23;5.68;;;;;;;;;;1252115;23;20038;-75
2024/03/05 02:17:35;;;;;;;6.38;5.75;;;;;;;;;;1246140;23;20626;-75
2024/03/05 02:18:07;;;;;;;28.55;7.75;;;;;;;;;;1245777;23;20018;-75
2024/03/05 02:18:38;;;;;;;14.45;9.63;;;;;;;;;;1243123;23;20081;-75
2024/03/05 02:19:11;;;;;;;6.78;5.03;;;;;;;;;;1244741;23;20038;-75
2024/03/05 02:19:45;;;;;;;12.85;7.53;;;;;;;;;;1250771;23;20007;-75
2024/03/05 02:20:17;;;;;;;4.38;3.35;;;;;;;;;;1250671;23;20007;-75
2024/03/05 02:20:47;;;;;;;22.77;5.13;;;;;;;;;;1248851;23;20378;-75
2024/03/05 02:21:20;;;;;;;25.80;5.10;;;;;;;;;;1250923;23;20022;-75
2024/03/05 02:22:03;;;;;;;12.75;4.88;;;;;;;;;;1244298;23;20154;-75
2024/03/05 02:22:34;;;;;;;3.72;3.47;;;;;;;;;;1245149;23;20008;-75
2024/03/05 02:23:05;;;;;;;8.25;4.03;;;;;;;;;;1245163;23;20037;-75
2024/03/05 02:23:35;;;;;;;8.68;5.35;;;;;;;;;;1244958;23;20367;-75
2024/03/05 02:24:06;;;;;;;7.80;4.60;;;;;;;;;;1244966;23;20007;-75
2024/03/05 02:24:36;;;;;;;7.43;3.53;;;;;;;;;;1239118;23;20007;-75
2024/03/05 02:25:07;;;;;;;6.63;3.63;;;;;;;;;;1239165;23;20026;-75
2024/03/05 02:25:37;;;;;;;6.47;4.75;;;;;;;;;;1240066;23;20011;-75
2024/03/05 02:26:08;;;;;;;4.97;4.53;;;;;;;;;;1237816;23;20007;-75
2024/03/05 02:26:39;;;;;;;8.15;5.88;;;;;;;;;;1245172;23;20035;-75
2024/03/05 02:27:10;;;;;;;16.98;6.40;;;;;;;;;;1239538;23;20035;-75
2024/03/05 02:27:40;;;;;;;16.67;6.93;;;;;;;;;;1239233;23;20423;-76
2024/03/05 02:28:11;;;;;;;4.20;3.47;;;;;;;;;;1239000;23;20011;-74
2024/03/05 02:28:42;;;;;;;8.98;7.03;;;;;;;;;;1238712;23;20004;-74
2024/03/05 02:29:12;;;;;;;6.50;4.35;;;;;;;;;;1244529;23;20483;-74
2024/03/05 02:29:43;;;;;;;10.30;9.23;;;;;;;;;;1250830;23;20037;-74
2024/03/05 02:30:15;;;;;;;7.05;6.38;;;;;;;;;;1250840;23;20094;-74
2024/03/05 02:30:46;;;;;;;9.48;6.82;;;;;;;;;;1250093;23;20007;-73
2024/03/05 02:31:16;;;;;;;9.48;6.57;;;;;;;;;;1251423;23;20034;-74
2024/03/05 02:31:47;;;;;;;13.00;7.30;;;;;;;;;;1251140;23;20039;-74
2024/03/05 02:32:19;;;;;;;10.27;7.93;;;;;;;;;;1251284;23;20011;-74
2024/03/05 02:32:50;;;;;;;9.05;5.65;;;;;;;;;;1251499;23;20011;-74
2024/03/05 02:33:21;;;;;;;16.83;6.45;;;;;;;;;;1251874;23;20077;-74
2024/03/05 02:33:53;;;;;;;22.60;4.60;;;;;;;;;;1251209;23;20031;-74
2024/03/05 02:34:25;;;;;;;8.45;7.15;;;;;;;;;;1249996;23;20053;-74
2024/03/05 02:34:56;;;;;;;10.95;5.25;;;;;;;;;;1245393;23;20018;-74
2024/03/05 02:35:26;;;;;;;8.48;5.63;;;;;;;;;;1239745;23;20343;-74
2024/03/05 02:35:58;;;;;;;9.25;5.35;;;;;;;;;;1239503;23;20337;-74
2024/03/05 02:36:28;;;;;;;12.75;7.22;;;;;;;;;;1239419;23;20008;-74
2024/03/05 02:36:59;;;;;;;2.55;2.35;;;;;;;;;;1244800;23;20468;-74
2024/03/05 02:37:29;;;;;;;9.40;5.32;;;;;;;;;;1250098;23;20069;-74
2024/03/05 02:38:00;;;;;;;16.17;6.13;;;;;;;;;;1245201;23;20459;-74
2024/03/05 02:38:30;;;;;;;22.50;8.20;;;;;;;;;;1245028;23;20011;-74
2024/03/05 02:39:01;;;;;;;14.80;6.50;;;;;;;;;;1245437;23;20375;-74
2024/03/05 02:39:33;;;;;;;10.38;4.03;;;;;;;;;;1246011;23;20011;-74
2024/03/05 02:40:08;;;;;;;7.97;5.20;;;;;;;;;;1245330;23;20357;-75
2024/03/05 02:40:39;;;;;;;10.70;3.97;;;;;;;;;;1245128;23;20011;-74
2024/03/05 02:41:10;;;;;;;6.22;5.60;;;;;;;;;;1239792;23;20523;-74
2024/03/05 02:41:41;;;;;;;4.32;3.80;;;;;;;;;;1239870;23;20015;-74
2024/03/05 02:42:11;;;;;;;28.15;8.18;;;;;;;;;;1239923;23;20045;-74
2024/03/05 02:42:42;;;;;;;13.15;6.40;;;;;;;;;;1244583;23;20011;-74
2024/03/05 02:43:13;;;;;;;20.17;8.68;;;;;;;;;;1244628;23;20057;-74
2024/03/05 02:43:45;;;;;;;20.73;4.55;;;;;;;;;;1245303;23;20022;-74
2024/03/05 02:44:16;;;;;;;7.50;5.88;;;;;;;;;;1245155;23;20007;-74
2024/03/05 02:44:46;;;;;;;7.85;6.70;;;;;;;;;;1239126;23;20501;-74
2024/03/05 02:45:18;;;;;;;7.45;4.72;;;;;;;;;;1239692;23;20007;-74
2024/03/05 02:45:48;;;;;;;18.52;7.22;;;;;;;;;;1245002;23;20114;-74
2024/03/05 02:46:19;;;;;;;11.48;5.95;;;;;;;;;;1241510;23;20019;-74
2024/03/05 02:46:50;;;;;;;12.55;6.40;;;;;;;;;;1250338;23;20007;-74
2024/03/05 02:47:21;;;;;;;11.02;5.80;;;;;;;;;;1244840;23;20019;-74
2024/03/05 02:47:52;;;;;;;22.83;7.95;;;;;;;;;;1245133;23;20008;-75
2024/03/05 02:48:23;;;;;;;11.80;4.03;;;;;;;;;;1244290;23;20367;-75
2024/03/05 02:48:55;;;;;;;3.28;2.50;;;;;;;;;;1244727;23;20098;-75
2024/03/05 02:49:26;;;;;;;5.53;4.80;;;;;;;;;;1248580;23;20431;-74
2024/03/05 02:49:59;;;;;;;9.55;5.47;;;;;;;;;;1241195;23;20011;-74
2024/03/05 02:50:34;;;;;;;9.63;4.18;;;;;;;;;;1242470;23;20521;-74
2024/03/05 02:51:05;;;;;;;2.63;2.50;;;;;;;;;;1244075;23;20035;-74
2024/03/05 02:51:36;;;;;;;14.63;9.95;;;;;;;;;;1244146;23;20008;-74
2024/03/05 02:52:07;;;;;;;10.70;6.85;;;;;;;;;;1239115;23;20551;-74
2024/03/05 02:52:39;;;;;;;8.35;5.40;;;;;;;;;;1237866;23;20008;-74
2024/03/05 02:53:10;;;;;;;12.70;6.72;;;;;;;;;;1238693;23;20011;-74
2024/03/05 02:53:40;;;;;;;8.00;3.10;;;;;;;;;;1243110;23;20483;-74
2024/03/05 02:54:11;;;;;;;16.17;4.20;;;;;;;;;;1238849;23;20016;-74
2024/03/05 02:54:43;;;;;;;12.00;4.88;;;;;;;;;;1238878;23;20357;-76
2024/03/05 02:55:15;;;;;;;9.25;4.50;;;;;;;;;;1238045;23;20467;-75
2024/03/05 02:55:46;;;;;;;11.25;8.32;;;;;;;;;;1239163;23;20007;-72
2024/03/05 02:56:20;;;;;;;16.00;5.65;;;;;;;;;;1238474;23;20052;-74
2024/03/05 02:56:54;;;;;;;8.70;5.47;;;;;;;;;;1238750;23;20007;-74
2024/03/05 02:57:28;;;;;;;19.05;5.45;;;;;;;;;;1245233;23;20011;-74
2024/03/05 02:57:59;;;;;;;17.45;5.25;;;;;;;;;;1244718;23;20014;-74
2024/03/05 02:58:30;;;;;;;23.98;6.97;;;;;;;;;;1241821;23;20050;-74
2024/03/05 02:59:03;;;;;;;9.65;4.82;;;;;;;;;;1243576;23;20007;-75
2024/03/05 02:59:34;;;;;;;12.32;5.00;;;;;;;;;;1238276;23;20803;-74
2024/03/05 03:00:18;;;;;;;9.57;5.85;;;;;;;;;;1237793;23;20024;-73
2024/03/05 03:00:50;;;;;;;7.30;4.63;;;;;;;;;;1235048;23;20012;-74
2024/03/05 03:01:29;;;;;;;7.88;5.38;;;;;;;;;;1240997;23;20008;-74
2024/03/05 03:02:01;;;;;;;6.07;3.33;;;;;;;;;;1238495;23;20012;-74
2024/03/05 03:02:32;;;;;;;5.68;4.22;;;;;;;;;;1236291;23;20488;-74
2024/03/05 03:03:05;;;;;;;16.05;6.20;;;;;;;;;;1232964;24;20773;-74
2024/03/05 03:03:37;;;;;;;7.50;3.95;;;;;;;;;;1233652;23;20059;-74
2024/03/05 03:04:08;;;;;;;19.98;6.53;;;;;;;;;;1238045;23;20069;-74
2024/03/05 03:04:46;;;;;;;7.88;6.30;;;;;;;;;;1237762;23;20004;-74
2024/03/05 03:05:21;;;;;;;5.70;3.85;;;;;;;;;;1234285;23;20014;-74
2024/03/05 03:05:54;;;;;;;12.77;6.72;;;;;;;;;;1224137;23;20035;-75